Time;durP1;ratioP1;P1;durP2;ratioP2;P2;SDS_P1;SDS_P2;PMS_P1;PMS_P2;Temp;Humidity;BMP_temperature;BMP_pressure;BME280_temperature;BME280_humidity;BME280_pressure;Samples;Min_cycle;Max_cycle;Signal;HPM_P1;HPM_P2
2023/02/24 00:04:25;;;;;;;14.80;7.95;;;11.30;99.90;;;;;;10139671;28;20025;-63
2023/02/24 00:09:25;;;;;;;15.38;7.78;;;11.20;99.90;;;;;;10146608;28;20035;-63
2023/02/24 00:14:16;;;;;;;14.30;7.43;;;11.20;99.90;;;;;;10135436;28;20091;-63
2023/02/24 00:19:06;;;;;;;13.50;7.07;;;11.10;99.90;;;;;;10118163;28;20021;-64
2023/02/24 00:24:00;;;;;;;13.02;7.70;;;11.20;99.90;;;;;;10122988;28;20108;-63
2023/02/24 00:28:51;;;;;;;12.20;7.22;;;11.10;99.90;;;;;;10136283;28;20048;-63
2023/02/24 00:33:43;;;;;;;12.38;6.78;;;11.10;99.90;;;;;;10131832;28;20087;-63
2023/02/24 00:38:35;;;;;;;12.18;7.40;;;11.00;99.90;;;;;;10120635;28;20057;-62
2023/02/24 00:43:26;;;;;;;13.23;7.10;;;11.10;99.90;;;;;;10126536;28;20016;-63
2023/02/24 00:48:16;;;;;;;14.45;6.97;;;11.10;99.90;;;;;;10148147;28;20179;-62
2023/02/24 00:53:07;;;;;;;12.63;7.00;;;11.10;99.90;;;;;;10142161;28;20068;-63
2023/02/24 00:57:58;;;;;;;16.17;7.70;;;11.10;99.90;;;;;;10120144;28;20116;-62
2023/02/24 01:02:48;;;;;;;15.88;7.70;;;11.10;99.90;;;;;;10116473;28;20036;-63
2023/02/24 01:07:39;;;;;;;11.40;6.65;;;11.00;99.90;;;;;;10113358;28;20483;-63
2023/02/24 01:12:48;;;;;;;14.85;7.28;;;10.90;99.90;;;;;;10121164;28;20098;-63
2023/02/24 01:17:38;;;;;;;12.52;6.82;;;10.90;99.90;;;;;;10104674;28;20033;-64
2023/02/24 01:22:29;;;;;;;15.90;8.35;;;10.80;99.90;;;;;;10140198;28;20021;-62
2023/02/24 01:27:20;;;;;;;18.33;8.07;;;10.90;99.90;;;;;;10137175;28;20462;-62
2023/02/24 01:32:20;;;;;;;14.75;7.72;;;10.90;99.90;;;;;;10156933;28;20077;-63
2023/02/24 01:37:18;;;;;;;15.05;8.07;;;10.90;99.90;;;;;;10149092;28;20048;-63
2023/02/24 01:42:15;;;;;;;14.88;7.18;;;10.90;99.90;;;;;;10127818;28;20028;-63
2023/02/24 01:47:05;;;;;;;15.57;8.43;;;10.80;99.90;;;;;;10140748;28;20308;-64
2023/02/24 01:52:02;;;;;;;13.77;7.30;;;10.90;99.90;;;;;;10138750;28;20616;-63
2023/02/24 01:56:54;;;;;;;16.02;8.45;;;10.80;99.90;;;;;;10138802;28;20103;-63
2023/02/24 02:01:46;;;;;;;17.58;8.20;;;10.90;99.90;;;;;;10139729;28;20470;-62
2023/02/24 02:06:38;;;;;;;14.23;8.82;;;11.00;99.90;;;;;;10138797;28;20025;-63
2023/02/24 02:11:29;;;;;;;16.50;8.88;;;11.00;99.90;;;;;;10138641;28;20119;-63
2023/02/24 02:16:43;;;;;;;15.68;7.95;;;10.90;99.90;;;;;;10133647;28;20111;-63
2023/02/24 02:21:57;;;;;;;13.93;8.00;;;10.70;99.90;;;;;;10120413;28;20493;-62
2023/02/24 02:26:57;;;;;;;14.43;8.45;;;10.70;99.90;;;;;;10138086;28;20108;-63
2023/02/24 02:32:06;;;;;;;17.45;9.52;;;10.60;99.90;;;;;;10132700;28;20048;-62
2023/02/24 02:37:04;;;;;;;14.85;7.95;;;10.70;99.90;;;;;;10102427;28;20476;-62
2023/02/24 02:42:17;;;;;;;17.45;8.40;;;10.60;99.90;;;;;;10105790;28;20025;-63
2023/02/24 02:47:28;;;;;;;18.40;8.57;;;10.60;99.90;;;;;;10127576;28;20025;-63
2023/02/24 02:52:39;;;;;;;17.40;9.02;;;10.60;99.90;;;;;;10119256;28;20033;-63
2023/02/24 02:57:30;;;;;;;15.60;7.88;;;10.60;99.90;;;;;;10135382;28;20016;-63
2023/02/24 03:02:27;;;;;;;18.50;10.00;;;10.50;99.90;;;;;;10145460;28;20418;-63
2023/02/24 03:07:21;;;;;;;20.98;8.85;;;10.60;99.90;;;;;;10145730;28;20108;-63
2023/02/24 03:12:17;;;;;;;21.00;9.15;;;10.50;99.90;;;;;;10145262;28;20033;-63
2023/02/24 03:17:15;;;;;;;23.67;11.65;;;10.50;99.90;;;;;;10116597;28;20392;-63
2023/02/24 03:22:12;;;;;;;20.38;9.88;;;10.40;99.90;;;;;;10104668;28;20029;-62
2023/02/24 03:27:12;;;;;;;19.67;9.27;;;10.40;99.90;;;;;;10117626;28;20108;-62
2023/02/24 03:32:17;;;;;;;22.92;11.73;;;10.40;99.90;;;;;;10126493;28;20036;-63
2023/02/24 03:37:08;;;;;;;21.45;9.77;;;10.50;99.90;;;;;;10144249;28;20036;-62
2023/02/24 03:42:28;;;;;;;23.88;10.38;;;10.50;99.90;;;;;;10143981;28;20111;-62
2023/02/24 03:47:19;;;;;;;27.27;12.57;;;10.50;99.90;;;;;;10149780;28;20093;-63
2023/02/24 03:52:20;;;;;;;21.48;11.02;;;10.60;99.90;;;;;;10143413;28;20024;-63
2023/02/24 03:57:53;;;;;;;24.90;11.02;;;10.40;99.90;;;;;;10132249;28;20297;-63
2023/02/24 04:02:47;;;;;;;27.52;11.43;;;10.30;99.90;;;;;;10152300;28;20032;-63
2023/02/24 04:08:01;;;;;;;22.90;11.68;;;10.20;99.90;;;;;;10153011;28;20037;-63
2023/02/24 04:13:17;;;;;;;27.83;12.13;;;10.30;99.90;;;;;;10140076;28;20127;-62
2023/02/24 04:18:21;;;;;;;28.17;11.93;;;10.10;99.90;;;;;;10129965;28;20027;-62
2023/02/24 04:23:17;;;;;;;25.23;11.32;;;10.10;99.90;;;;;;10140796;28;20044;-62
2023/02/24 04:28:09;;;;;;;27.10;12.35;;;10.10;99.90;;;;;;10141064;28;20100;-62
2023/02/24 04:33:00;;;;;;;26.85;12.13;;;10.10;99.90;;;;;;10117339;28;20078;-63
2023/02/24 04:37:51;;;;;;;31.35;13.45;;;10.10;99.90;;;;;;10130044;28;20435;-62
2023/02/24 04:42:45;;;;;;;33.53;13.38;;;10.20;99.90;;;;;;10141919;28;20081;-62
2023/02/24 04:47:36;;;;;;;35.03;13.85;;;10.20;99.90;;;;;;10143893;28;20463;-63
2023/02/24 04:52:27;;;;;;;27.75;11.98;;;10.20;99.90;;;;;;10141285;28;20086;-63
2023/02/24 04:57:18;;;;;;;35.20;14.23;;;10.20;99.90;;;;;;10141267;28;20053;-62
2023/02/24 05:02:09;;;;;;;27.05;11.95;;;10.20;99.90;;;;;;10140904;28;20078;-63
2023/02/24 05:06:59;;;;;;;24.27;12.88;;;10.30;99.90;;;;;;10141068;28;20025;-63
2023/02/24 05:11:51;;;;;;;32.72;14.35;;;10.20;99.90;;;;;;10140112;28;20051;-63
2023/02/24 05:16:43;;;;;;;33.42;13.73;;;10.10;99.90;;;;;;10112434;28;20051;-62
2023/02/24 05:21:37;;;;;;;31.95;13.02;;;10.10;99.90;;;;;;10114652;28;20467;-61
2023/02/24 05:26:30;;;;;;;37.20;13.18;;;10.10;99.90;;;;;;10140760;28;20021;-63
2023/02/24 05:31:27;;;;;;;27.50;11.65;;;10.10;99.90;;;;;;10123463;28;20032;-62
2023/02/24 05:36:18;;;;;;;31.05;12.45;;;10.10;99.90;;;;;;10134500;28;20037;-62
2023/02/24 05:41:17;;;;;;;28.67;13.27;;;10.20;99.90;;;;;;10100251;28;20441;-62
2023/02/24 05:46:07;;;;;;;38.40;15.05;;;10.20;99.90;;;;;;10130379;28;20029;-63
2023/02/24 05:50:58;;;;;;;29.25;13.52;;;10.20;99.90;;;;;;10139047;28;20013;-62
2023/02/24 05:55:49;;;;;;;33.15;13.05;;;10.20;99.90;;;;;;10139408;28;20489;-62
2023/02/24 06:00:44;;;;;;;33.22;12.40;;;10.20;99.90;;;;;;10139161;28;20089;-63
2023/02/24 06:05:38;;;;;;;34.13;13.10;;;10.20;99.90;;;;;;10137461;28;20038;-63
2023/02/24 06:10:30;;;;;;;36.78;14.25;;;10.20;99.90;;;;;;10133566;28;20109;-62
2023/02/24 06:15:21;;;;;;;33.15;13.07;;;10.20;99.90;;;;;;10105596;28;20033;-63
2023/02/24 06:20:15;;;;;;;32.30;13.95;;;10.20;99.90;;;;;;10130297;28;20024;-63
2023/02/24 06:25:06;;;;;;;32.05;14.80;;;10.30;99.90;;;;;;10140114;28;20013;-62
2023/02/24 06:29:57;;;;;;;32.22;14.13;;;10.40;99.90;;;;;;10122945;28;20144;-62
2023/02/24 06:34:50;;;;;;;32.15;12.32;;;10.30;99.90;;;;;;10120342;28;20044;-63
2023/02/24 06:39:42;;;;;;;32.83;12.52;;;10.40;99.90;;;;;;10098778;28;20020;-62
2023/02/24 06:44:35;;;;;;;38.03;15.88;;;10.40;99.90;;;;;;10119548;28;20488;-63
2023/02/24 06:49:26;;;;;;;32.85;14.00;;;10.40;99.90;;;;;;10146243;28;20090;-63
2023/02/24 06:54:17;;;;;;;34.80;13.80;;;10.50;99.90;;;;;;10138419;28;20068;-62
2023/02/24 06:59:11;;;;;;;33.85;13.43;;;10.50;99.90;;;;;;10138150;28;20025;-63
2023/02/24 07:04:16;;;;;;;38.10;16.30;;;10.50;99.90;;;;;;10132058;28;20064;-62
2023/02/24 07:09:10;;;;;;;38.78;15.93;;;10.50;99.90;;;;;;10109892;28;20021;-62
2023/02/24 07:14:01;;;;;;;38.10;15.63;;;10.50;99.90;;;;;;10130951;28;20132;-62
2023/02/24 07:18:57;;;;;;;36.45;15.88;;;10.50;99.90;;;;;;10116001;28;20020;-62
2023/02/24 07:23:48;;;;;;;32.25;13.80;;;10.50;99.90;;;;;;10131275;28;20415;-63
2023/02/24 07:28:41;;;;;;;44.95;16.08;;;10.60;99.90;;;;;;10134302;28;20089;-62
2023/02/24 07:33:33;;;;;;;37.28;16.35;;;10.60;99.90;;;;;;10130329;28;20049;-63
2023/02/24 07:38:24;;;;;;;26.58;13.73;;;10.70;99.90;;;;;;10137680;28;20025;-62
2023/02/24 07:43:15;;;;;;;32.15;13.13;;;10.60;99.90;;;;;;10132121;28;20036;-65
2023/02/24 07:48:06;;;;;;;32.95;14.23;;;10.60;99.90;;;;;;10129324;28;20036;-61
2023/02/24 07:52:58;;;;;;;34.00;14.05;;;10.60;99.90;;;;;;10128891;28;20403;-64
2023/02/24 07:57:48;;;;;;;35.80;15.05;;;10.70;99.90;;;;;;10132662;28;20429;-66
2023/02/24 08:02:39;;;;;;;38.65;16.67;;;10.60;99.90;;;;;;10131975;28;20021;-63
2023/02/24 08:07:30;;;;;;;34.28;13.65;;;10.50;99.90;;;;;;10131096;28;20483;-61
2023/02/24 08:12:22;;;;;;;29.27;12.45;;;10.60;99.90;;;;;;10126724;28;20196;-65
2023/02/24 08:17:18;;;;;;;38.67;14.38;;;10.80;99.90;;;;;;10132262;28;20279;-64
2023/02/24 08:22:19;;;;;;;31.27;13.77;;;10.90;99.90;;;;;;10126999;28;20316;-65
2023/02/24 08:27:10;;;;;;;32.13;14.18;;;11.20;99.90;;;;;;10129773;28;20027;-64
2023/02/24 08:32:01;;;;;;;41.35;16.85;;;11.00;99.90;;;;;;10127211;28;20036;-64
2023/02/24 08:36:54;;;;;;;28.45;12.77;;;11.20;99.90;;;;;;10127329;28;20040;-64
2023/02/24 08:41:49;;;;;;;27.95;13.38;;;11.10;99.90;;;;;;10130372;28;20429;-64
2023/02/24 08:46:40;;;;;;;29.27;12.90;;;11.00;99.90;;;;;;10133171;28;20024;-63
2023/02/24 08:51:42;;;;;;;27.77;11.73;;;11.00;99.90;;;;;;10130019;28;20118;-64
2023/02/24 08:56:33;;;;;;;30.23;10.95;;;11.20;99.90;;;;;;10126303;28;20073;-65
2023/02/24 09:01:33;;;;;;;25.20;11.35;;;11.30;99.90;;;;;;10126884;28;20024;-64
2023/02/24 09:06:44;;;;;;;23.20;10.68;;;11.30;99.90;;;;;;10129908;28;20478;-63
2023/02/24 09:11:35;;;;;;;24.15;11.43;;;11.50;99.90;;;;;;10124455;28;20036;-62
2023/02/24 09:16:51;;;;;;;26.02;11.18;;;11.50;99.90;;;;;;10132771;28;20016;-60
2023/02/24 09:26:43;;;;;;;34.42;12.00;;;11.40;99.90;;;;;;10169398;28;20471;-61
2023/02/24 09:31:54;;;;;;;34.15;15.27;;;11.40;99.90;;;;;;10155869;28;20466;-62
2023/02/24 09:37:00;;;;;;;27.48;13.55;;;11.30;99.90;;;;;;10136817;28;20539;-61
2023/02/24 09:46:59;;;;;;;32.33;13.07;;;11.10;99.90;;;;;;10114147;28;20035;-62
2023/02/24 09:51:59;;;;;;;27.45;12.02;;;11.20;99.90;;;;;;10135925;28;20048;-62
2023/02/24 09:57:15;;;;;;;24.02;12.38;;;11.20;99.90;;;;;;10126007;28;20521;-61
2023/02/24 10:02:42;;;;;;;28.48;13.63;;;11.10;99.90;;;;;;10113261;28;20112;-65
2023/02/24 10:07:38;;;;;;;28.63;12.75;;;11.10;99.90;;;;;;10139360;28;20052;-61
2023/02/24 10:12:38;;;;;;;28.40;13.75;;;11.20;99.90;;;;;;10138462;28;20060;-62
2023/02/24 10:17:38;;;;;;;34.50;13.48;;;11.40;99.90;;;;;;10126489;28;20036;-60
2023/02/24 10:22:38;;;;;;;33.00;14.15;;;11.40;99.90;;;;;;10102055;28;20028;-61
2023/02/24 10:27:38;;;;;;;37.67;16.13;;;11.50;99.90;;;;;;10110230;28;20028;-61
2023/02/24 10:32:57;;;;;;;32.58;14.98;;;11.50;99.90;;;;;;10129388;28;20051;-62
2023/02/24 10:37:48;;;;;;;30.88;13.70;;;11.50;99.90;;;;;;10122841;28;20384;-62
2023/02/24 10:42:47;;;;;;;27.55;14.15;;;11.40;99.90;;;;;;10138490;28;20024;-62
2023/02/24 10:47:43;;;;;;;35.03;12.18;;;11.50;99.90;;;;;;10136489;28;20082;-61
2023/02/24 10:57:54;;;;;;;25.90;13.02;;;11.80;99.90;;;;;;10117088;28;20029;-63
2023/02/24 11:03:05;;;;;;;28.95;14.82;;;12.10;99.90;;;;;;10097879;28;20036;-66
2023/02/24 11:08:24;;;;;;;29.35;13.93;;;12.30;99.90;;;;;;10098503;28;20490;-62
2023/02/24 11:18:27;;;;;;;22.52;11.77;;;12.50;99.90;;;;;;10137134;28;20408;-61
2023/02/24 11:23:23;;;;;;;19.85;10.90;;;12.60;99.90;;;;;;10148077;28;20031;-60
2023/02/24 11:28:49;;;;;;;28.92;11.63;;;12.50;99.90;;;;;;10156250;28;20096;-62
2023/02/24 11:33:53;;;;;;;21.00;9.37;;;12.30;99.90;;;;;;10147946;28;20076;-65
2023/02/24 11:38:52;;;;;;;23.83;9.43;;;12.50;99.90;;;;;;10164455;28;20024;-63
2023/02/24 11:43:48;;;;;;;20.25;9.70;;;12.80;99.90;;;;;;10177652;28;20024;-64
2023/02/24 11:48:45;;;;;;;20.65;9.13;;;12.90;99.90;;;;;;10160151;28;20027;-65
2023/02/24 11:53:42;;;;;;;17.25;8.40;;;13.00;99.90;;;;;;10144652;28;20731;-63
2023/02/24 11:59:04;;;;;;;21.85;10.63;;;13.20;99.90;;;;;;10160007;28;20525;-63
2023/02/24 12:04:00;;;;;;;20.08;8.85;;;12.90;99.90;;;;;;10167140;28;20047;-62
2023/02/24 12:08:56;;;;;;;18.77;7.85;;;12.80;99.90;;;;;;10153349;28;20024;-62
2023/02/24 12:13:58;;;;;;;;;;;13.00;99.90;;;;;;10139413;28;20033;-62
2023/02/24 12:18:48;;;;;;;18.60;8.63;;;13.40;99.90;;;;;;10147058;28;20396;-63
2023/02/24 12:23:43;;;;;;;13.77;7.43;;;13.30;99.90;;;;;;10103677;28;20275;-63
2023/02/24 12:28:47;;;;;;;12.03;6.83;;;13.80;99.90;;;;;;10107953;28;20046;-62
2023/02/24 12:34:15;;;;;;;10.57;5.15;;;13.80;99.90;;;;;;10141685;28;20044;-63
2023/02/24 12:39:19;;;;;;;11.80;5.03;;;13.60;99.90;;;;;;10113696;28;20040;-63
2023/02/24 12:44:45;;;;;;;10.13;5.38;;;13.50;99.90;;;;;;10136797;28;20036;-62
2023/02/24 12:49:45;;;;;;;14.90;8.05;;;13.20;99.90;;;;;;10090156;28;20032;-62
2023/02/24 12:54:40;;;;;;;12.85;5.70;;;12.60;99.90;;;;;;10101772;28;20062;-62
2023/02/24 12:59:36;;;;;;;13.68;5.10;;;12.40;99.90;;;;;;10123130;28;20059;-63
2023/02/24 13:04:37;;;;;;;18.25;7.82;;;12.30;99.90;;;;;;10130368;28;20040;-60
2023/02/24 13:09:49;;;;;;;13.43;7.45;;;12.40;99.90;;;;;;10131364;28;20063;-62
2023/02/24 13:14:42;;;;;;;19.30;8.63;;;12.30;99.90;;;;;;10119601;28;20032;-60
2023/02/24 13:19:32;;;;;;;19.25;8.23;;;12.60;99.90;;;;;;10133615;28;20027;-60
2023/02/24 13:24:25;;;;;;;17.92;8.63;;;12.70;99.90;;;;;;10129626;28;20123;-61
2023/02/24 13:29:16;;;;;;;16.73;8.27;;;12.70;99.90;;;;;;10126657;28;20110;-62
2023/02/24 13:34:29;;;;;;;16.48;9.13;;;12.60;99.90;;;;;;10127953;28;20515;-63
2023/02/24 13:39:32;;;;;;;18.63;8.48;;;12.60;99.90;;;;;;10124722;28;20494;-64
2023/02/24 13:44:26;;;;;;;18.45;8.88;;;12.50;99.90;;;;;;10124647;28;20043;-62
2023/02/24 13:49:47;;;;;;;20.95;9.23;;;12.50;99.90;;;;;;10123916;28;20032;-62
2023/02/24 13:55:04;;;;;;;18.92;9.23;;;12.50;99.90;;;;;;10122737;28;20529;-64
2023/02/24 14:00:24;;;;;;;28.33;9.90;;;12.40;99.90;;;;;;10126144;28;20023;-63
2023/02/24 14:05:32;;;;;;;27.65;10.70;;;12.40;99.90;;;;;;10125033;28;20027;-63
2023/02/24 14:10:33;;;;;;;19.50;9.57;;;12.40;99.90;;;;;;10120103;28;20134;-63
2023/02/24 14:15:26;;;;;;;23.65;10.93;;;12.40;99.90;;;;;;10125089;28;20091;-63
2023/02/24 14:20:21;;;;;;;29.38;11.73;;;12.40;99.90;;;;;;10119880;28;20040;-61
2023/02/24 14:25:13;;;;;;;20.35;10.05;;;12.30;99.90;;;;;;10124599;28;20227;-63
2023/02/24 14:30:05;;;;;;;27.75;11.98;;;12.10;99.90;;;;;;10119363;28;20019;-62
2023/02/24 14:34:56;;;;;;;25.40;11.27;;;12.20;99.90;;;;;;10118276;28;20598;-62
2023/02/24 14:39:52;;;;;;;31.35;11.50;;;12.10;99.90;;;;;;10118041;28;20108;-62
2023/02/24 14:44:49;;;;;;;28.70;11.63;;;12.30;99.90;;;;;;10130688;28;20025;-61
2023/02/24 14:49:41;;;;;;;23.17;11.02;;;12.20;99.90;;;;;;10123362;28;20033;-63
2023/02/24 14:54:41;;;;;;;31.60;12.15;;;12.00;99.90;;;;;;10133746;28;20082;-63
2023/02/24 14:59:36;;;;;;;24.77;12.15;;;12.00;99.90;;;;;;10133135;28;20028;-62
2023/02/24 15:04:27;;;;;;;31.00;12.93;;;12.20;99.90;;;;;;10129116;28;20024;-61
2023/02/24 15:09:22;;;;;;;28.88;14.40;;;12.30;99.90;;;;;;10133460;28;20023;-63
2023/02/24 15:14:26;;;;;;;23.70;11.98;;;12.40;99.90;;;;;;10125720;28;20077;-62
2023/02/24 15:19:26;;;;;;;26.15;12.10;;;12.30;99.90;;;;;;10128366;28;20024;-61
2023/02/24 15:24:17;;;;;;;27.92;12.10;;;12.20;99.90;;;;;;10125578;28;20017;-62
2023/02/24 15:29:20;;;;;;;30.95;10.68;;;12.10;99.90;;;;;;10123443;28;20024;-61
2023/02/24 15:34:42;;;;;;;25.27;11.68;;;11.90;99.90;;;;;;10126173;28;20045;-59
2023/02/24 15:39:35;;;;;;;30.48;13.20;;;11.90;99.90;;;;;;10112171;28;20245;-59
2023/02/24 15:44:35;;;;;;;23.52;11.95;;;11.80;99.90;;;;;;10127693;28;20043;-62
2023/02/24 15:49:25;;;;;;;25.77;12.02;;;11.80;99.90;;;;;;10131740;28;20510;-64
2023/02/24 15:54:33;;;;;;;24.70;12.15;;;11.80;99.90;;;;;;10128646;28;20047;-62
2023/02/24 15:59:23;;;;;;;30.92;13.70;;;11.80;99.90;;;;;;10127528;28;20100;-64
2023/02/24 16:04:14;;;;;;;22.63;10.75;;;11.70;99.90;;;;;;10143020;28;20107;-60
2023/02/24 16:09:05;;;;;;;26.48;11.82;;;11.60;99.90;;;;;;10118039;28;20059;-62
2023/02/24 16:13:59;;;;;;;23.27;11.38;;;11.50;99.90;;;;;;10120701;28;20059;-60
2023/02/24 16:18:50;;;;;;;22.98;11.80;;;11.30;99.90;;;;;;10113291;28;20044;-62
2023/02/24 16:23:41;;;;;;;18.58;9.07;;;11.00;99.90;;;;;;10118958;28;20029;-62
2023/02/24 16:28:32;;;;;;;18.80;9.88;;;10.90;99.90;;;;;;10121541;28;20021;-62
2023/02/24 16:33:23;;;;;;;22.75;9.38;;;10.90;99.90;;;;;;10121380;28;20051;-63
2023/02/24 16:38:15;;;;;;;17.98;8.70;;;10.90;99.90;;;;;;10121204;28;20029;-62
2023/02/24 16:43:06;;;;;;;13.00;7.10;;;11.00;99.90;;;;;;10125840;28;20123;-63
2023/02/24 16:47:59;;;;;;;16.88;8.25;;;10.90;99.90;;;;;;10126938;28;20096;-62
2023/02/24 16:52:50;;;;;;;18.38;9.13;;;10.70;99.90;;;;;;10120398;28;20063;-60
2023/02/24 16:57:41;;;;;;;21.13;10.50;;;10.70;99.90;;;;;;10122156;28;20023;-64
2023/02/24 17:02:32;;;;;;;18.77;8.35;;;10.50;99.90;;;;;;10120377;28;20025;-62
2023/02/24 17:07:23;;;;;;;20.10;9.23;;;10.30;99.90;;;;;;10119574;28;20451;-65
2023/02/24 17:12:16;;;;;;;18.08;9.63;;;10.20;99.90;;;;;;10126669;28;20086;-63
2023/02/24 17:17:06;;;;;;;16.95;8.75;;;9.90;99.90;;;;;;10121626;28;20367;-61
2023/02/24 17:21:57;;;;;;;16.23;7.53;;;9.80;99.90;;;;;;10124231;28;20024;-65
2023/02/24 17:26:47;;;;;;;16.40;7.55;;;9.80;99.90;;;;;;10120718;28;20021;-65
2023/02/24 17:31:39;;;;;;;18.98;8.30;;;9.70;99.90;;;;;;10131587;28;20024;-62
2023/02/24 17:36:29;;;;;;;18.13;8.23;;;9.70;99.90;;;;;;10144682;28;20049;-61
2023/02/24 17:41:21;;;;;;;24.77;8.63;;;9.40;99.90;;;;;;10132725;28;20017;-61
2023/02/24 17:46:12;;;;;;;17.67;6.93;;;9.40;99.90;;;;;;10124978;28;20115;-63
2023/02/24 17:51:03;;;;;;;11.02;5.90;;;9.40;99.90;;;;;;10118626;28;20550;-64
2023/02/24 17:56:01;;;;;;;14.38;6.70;;;9.50;99.90;;;;;;10119563;28;20041;-64
2023/02/24 18:00:53;;;;;;;15.35;6.53;;;9.70;99.90;;;;;;10139598;28;20107;-62
2023/02/24 18:05:44;;;;;;;11.35;5.47;;;9.70;99.90;;;;;;10134802;28;20074;-61
2023/02/24 18:10:34;;;;;;;14.20;5.95;;;9.70;99.90;;;;;;10138282;28;20024;-65
2023/02/24 18:15:25;;;;;;;15.00;7.20;;;9.70;99.90;;;;;;10112022;28;20036;-63
2023/02/24 18:20:16;;;;;;;13.02;6.63;;;9.70;99.90;;;;;;10116996;28;20056;-64
2023/02/24 18:25:07;;;;;;;16.38;6.30;;;9.80;99.90;;;;;;10122462;28;20020;-64
2023/02/24 18:29:57;;;;;;;13.23;6.43;;;9.80;99.90;;;;;;10118716;28;20033;-64
2023/02/24 18:34:48;;;;;;;9.98;5.22;;;9.70;99.90;;;;;;10124402;28;20049;-64
2023/02/24 18:39:38;;;;;;;15.35;5.82;;;9.70;99.90;;;;;;10127700;28;20464;-65
2023/02/24 18:44:29;;;;;;;12.07;5.50;;;9.80;99.90;;;;;;10126490;28;20302;-64
2023/02/24 18:49:20;;;;;;;13.70;6.63;;;9.70;99.90;;;;;;10113841;28;20124;-64
2023/02/24 18:54:11;;;;;;;15.82;7.53;;;9.80;99.90;;;;;;10130794;28;20124;-65
2023/02/24 18:59:02;;;;;;;15.07;6.60;;;9.80;99.90;;;;;;10121380;28;20066;-66
2023/02/24 19:03:54;;;;;;;12.48;5.97;;;9.80;99.90;;;;;;10113190;28;20479;-67
2023/02/24 19:08:46;;;;;;;12.90;5.53;;;9.80;99.90;;;;;;10129880;28;20416;-65
2023/02/24 19:13:36;;;;;;;17.38;6.85;;;9.80;99.90;;;;;;10112010;28;20395;-64
2023/02/24 19:18:27;;;;;;;10.40;5.22;;;9.70;99.90;;;;;;10129521;28;20025;-65
2023/02/24 19:23:18;;;;;;;12.60;5.95;;;9.80;99.90;;;;;;10132273;28;20024;-65
2023/02/24 19:28:08;;;;;;;10.57;4.80;;;9.80;99.90;;;;;;10134463;28;20021;-64
2023/02/24 19:32:59;;;;;;;13.20;4.80;;;9.70;99.90;;;;;;10124496;28;20497;-66
2023/02/24 19:37:50;;;;;;;9.73;4.60;;;9.80;99.90;;;;;;10131582;28;20037;-64
2023/02/24 19:42:41;;;;;;;9.07;5.03;;;9.80;99.90;;;;;;10146723;28;20028;-64
2023/02/24 19:47:32;;;;;;;13.13;4.75;;;9.80;99.90;;;;;;10144228;28;20478;-64
2023/02/24 19:52:22;;;;;;;13.07;5.55;;;9.80;99.90;;;;;;10124695;28;20052;-66
2023/02/24 19:57:13;;;;;;;15.18;6.07;;;9.70;99.90;;;;;;10124483;28;20108;-67
2023/02/24 20:02:04;;;;;;;18.90;7.28;;;9.70;99.90;;;;;;10143396;28;20163;-64
2023/02/24 20:06:55;;;;;;;14.50;6.50;;;9.70;99.90;;;;;;10143610;28;20178;-65
2023/02/24 20:11:48;;;;;;;17.55;6.10;;;9.70;99.90;;;;;;10143085;28;20179;-65
2023/02/24 20:16:41;;;;;;;16.20;7.30;;;9.70;99.90;;;;;;10127145;28;20029;-65
2023/02/24 20:21:32;;;;;;;17.52;7.38;;;9.70;99.90;;;;;;10129313;28;20484;-64
2023/02/24 20:26:23;;;;;;;14.75;7.00;;;9.70;99.90;;;;;;10131882;28;20024;-66
2023/02/24 20:31:19;;;;;;;17.00;7.57;;;9.60;99.90;;;;;;10141348;28;20021;-66
2023/02/24 20:36:16;;;;;;;14.60;7.00;;;9.70;99.90;;;;;;10141416;28;20456;-65
2023/02/24 20:41:07;;;;;;;18.42;8.13;;;9.70;99.90;;;;;;10126966;28;20028;-64
2023/02/24 20:45:59;;;;;;;18.27;7.82;;;9.70;99.90;;;;;;10121137;28;20025;-65
2023/02/24 20:50:50;;;;;;;17.25;7.57;;;9.70;99.90;;;;;;10122866;28;20439;-65
2023/02/24 20:55:41;;;;;;;20.52;7.50;;;9.70;99.90;;;;;;10119409;28;20116;-65
2023/02/24 21:00:37;;;;;;;12.85;6.53;;;9.70;99.90;;;;;;10135971;28;20035;-64
2023/02/24 21:05:27;;;;;;;17.73;7.97;;;9.60;99.90;;;;;;10125733;28;20032;-65
2023/02/24 21:10:21;;;;;;;14.63;6.60;;;9.50;99.90;;;;;;10139423;28;20391;-65
2023/02/24 21:15:13;;;;;;;15.18;5.50;;;9.50;99.90;;;;;;10134411;28;20113;-65
2023/02/24 21:20:05;;;;;;;15.68;6.72;;;9.60;99.90;;;;;;10132294;28;20029;-65
2023/02/24 21:24:56;;;;;;;12.73;6.32;;;9.40;99.90;;;;;;10135299;28;20097;-67
2023/02/24 21:29:47;;;;;;;14.00;6.28;;;9.50;99.90;;;;;;10125053;28;20409;-64
2023/02/24 21:34:38;;;;;;;12.32;5.90;;;9.50;99.90;;;;;;10118311;28;20583;-65
2023/02/24 21:39:28;;;;;;;13.85;5.35;;;9.40;99.90;;;;;;10122302;28;20024;-65
2023/02/24 21:44:20;;;;;;;13.07;5.57;;;9.40;99.90;;;;;;10139775;28;20041;-67
2023/02/24 21:49:14;;;;;;;17.55;5.97;;;9.40;99.90;;;;;;10118491;28;20091;-64
2023/02/24 21:54:07;;;;;;;16.63;6.00;;;9.50;99.90;;;;;;10138750;28;20024;-66
2023/02/24 21:59:01;;;;;;;12.57;5.70;;;9.50;99.90;;;;;;10106008;28;20032;-63
2023/02/24 22:03:53;;;;;;;13.52;6.20;;;9.40;99.90;;;;;;10099144;28;20128;-63
2023/02/24 22:08:44;;;;;;;12.43;6.55;;;9.40;99.90;;;;;;10098483;28;20051;-64
2023/02/24 22:13:35;;;;;;;14.65;5.88;;;9.30;99.90;;;;;;10124013;28;20028;-64
2023/02/24 22:18:25;;;;;;;9.88;4.82;;;9.30;99.90;;;;;;10106615;28;20501;-64
2023/02/24 22:23:16;;;;;;;10.30;5.60;;;9.30;99.90;;;;;;10124543;28;20029;-63
2023/02/24 22:28:07;;;;;;;12.02;5.70;;;9.30;99.90;;;;;;10137009;28;20031;-63
2023/02/24 22:32:57;;;;;;;13.85;4.88;;;9.20;99.90;;;;;;10137779;28;20048;-64
2023/02/24 22:37:48;;;;;;;7.43;4.13;;;9.10;99.90;;;;;;10129793;28;20036;-63
2023/02/24 22:42:39;;;;;;;8.60;4.53;;;9.00;99.90;;;;;;10133595;28;20119;-63
2023/02/24 22:47:30;;;;;;;9.48;3.85;;;9.00;99.90;;;;;;10121214;28;20150;-66
2023/02/24 22:52:20;;;;;;;7.35;3.63;;;9.00;99.90;;;;;;10117432;28;20123;-62
2023/02/24 22:57:11;;;;;;;5.13;3.05;;;8.90;99.90;;;;;;10118237;28;20032;-65
2023/02/24 23:02:02;;;;;;;6.25;2.97;;;8.80;99.90;;;;;;10127052;28;20564;-62
2023/02/24 23:06:54;;;;;;;8.52;3.83;;;8.80;99.90;;;;;;10136548;28;20189;-65
2023/02/24 23:11:45;;;;;;;9.18;4.47;;;8.70;99.90;;;;;;10125878;28;20024;-63
2023/02/24 23:16:37;;;;;;;7.78;3.97;;;8.70;99.90;;;;;;10139275;28;20201;-63
2023/02/24 23:21:34;;;;;;;7.80;3.78;;;8.70;99.90;;;;;;10129872;28;20075;-62
2023/02/24 23:26:42;;;;;;;9.93;3.65;;;8.60;99.90;;;;;;10131745;28;20025;-63
2023/02/24 23:31:32;;;;;;;7.88;3.55;;;8.60;99.90;;;;;;10131417;28;20509;-64
2023/02/24 23:36:24;;;;;;;7.95;3.33;;;8.50;99.90;;;;;;10141768;28;20046;-63
2023/02/24 23:41:16;;;;;;;11.15;3.60;;;8.50;99.90;;;;;;10130007;28;20056;-63
2023/02/24 23:46:09;;;;;;;5.70;3.28;;;8.40;99.90;;;;;;10124326;28;20624;-64
2023/02/24 23:51:05;;;;;;;7.35;4.15;;;8.50;99.90;;;;;;10125930;28;20084;-63
2023/02/24 23:55:56;;;;;;;;;;;8.50;99.90;;;;;;10134107;28;20102;-63
